createdAt,value
2017-10-18T00:01:09.656Z,10.83
2017-10-18T00:06:47.935Z,12.30
2017-10-18T00:09:23.165Z,11.60
2017-10-18T00:11:58.735Z,11.73
2017-10-18T00:14:33.591Z,10.80
2017-10-18T00:17:09.115Z,11.13
2017-10-18T00:19:43.759Z,10.63
2017-10-18T00:22:20.394Z,11.67
2017-10-18T00:24:55.815Z,12.57
2017-10-18T00:27:30.428Z,11.90
2017-10-18T00:30:05.969Z,12.23
2017-10-18T00:32:41.443Z,11.10
2017-10-18T00:35:16.074Z,10.90
2017-10-18T00:37:51.807Z,10.10
2017-10-18T00:40:28.663Z,10.40
2017-10-18T00:43:04.053Z,8.53
2017-10-18T00:45:39.242Z,9.77
2017-10-18T00:48:14.720Z,11.10
2017-10-18T00:50:49.794Z,10.37
2017-10-18T00:53:24.492Z,11.20
2017-10-18T00:55:59.337Z,10.13
2017-10-18T00:58:36.359Z,10.77
2017-10-18T01:01:11.739Z,11.13
2017-10-18T01:03:47.226Z,11.10
2017-10-18T01:06:21.987Z,10.50
2017-10-18T01:08:56.656Z,11.03
2017-10-18T01:11:31.481Z,11.03
2017-10-18T01:14:06.148Z,9.73
2017-10-18T01:16:40.776Z,9.80
2017-10-18T01:19:16.288Z,10.43
2017-10-18T01:21:51.155Z,9.60
2017-10-18T01:24:25.672Z,10.37
2017-10-18T01:27:00.257Z,9.43
2017-10-18T01:29:35.056Z,9.47
2017-10-18T01:32:09.646Z,9.53
2017-10-18T01:34:46.787Z,9.93
2017-10-18T01:37:21.493Z,9.90
2017-10-18T01:39:57.484Z,8.83
2017-10-18T01:42:32.228Z,10.10
2017-10-18T01:45:13.285Z,8.70
2017-10-18T01:47:48.425Z,9.73
2017-10-18T01:50:25.345Z,8.03
2017-10-18T01:53:00.662Z,9.50
2017-10-18T01:55:36.809Z,8.93
2017-10-18T01:58:13.798Z,9.67
2017-10-18T02:00:48.426Z,9.30
2017-10-18T02:06:21.017Z,10.40
2017-10-18T02:08:55.776Z,8.73
2017-10-18T02:11:30.453Z,8.70
2017-10-18T02:14:05.008Z,8.73
2017-10-18T02:16:40.783Z,8.77
2017-10-18T02:19:31.006Z,8.37
2017-10-18T02:22:06.467Z,9.23
2017-10-18T02:24:41.901Z,8.30
2017-10-18T02:27:16.959Z,8.87
2017-10-18T02:29:52.423Z,9.47
2017-10-18T02:32:27.963Z,9.20
2017-10-18T02:35:02.862Z,8.60
2017-10-18T02:37:37.499Z,9.60
2017-10-18T02:40:12.112Z,8.43
2017-10-18T02:42:48.874Z,10.23
2017-10-18T02:45:24.152Z,10.27
2017-10-18T02:47:59.438Z,9.27
2017-10-18T02:50:34.109Z,8.90
2017-10-18T02:53:09.096Z,9.40
2017-10-18T02:55:43.742Z,10.03
2017-10-18T02:58:18.409Z,9.07
2017-10-18T03:00:53.096Z,9.33
2017-10-18T03:03:30.649Z,10.30
2017-10-18T03:06:05.864Z,9.73
2017-10-18T03:08:40.498Z,9.50
2017-10-18T03:11:14.985Z,10.13
2017-10-18T03:13:49.550Z,9.67
2017-10-18T03:16:26.178Z,9.00
2017-10-18T03:19:02.410Z,9.97
2017-10-18T03:21:37.290Z,9.07
2017-10-18T03:24:12.965Z,10.90
2017-10-18T03:26:47.693Z,10.27
2017-10-18T03:29:24.399Z,9.87
2017-10-18T03:31:59.603Z,10.27
2017-10-18T03:34:34.164Z,9.50
2017-10-18T03:37:09.068Z,9.60
2017-10-18T03:39:43.961Z,9.70
2017-10-18T03:42:19.216Z,9.40
2017-10-18T03:44:56.234Z,11.50
2017-10-18T03:47:30.757Z,10.83
2017-10-18T03:50:06.058Z,11.60
2017-10-18T03:52:40.532Z,12.30
2017-10-18T03:55:17.149Z,9.73
2017-10-18T03:57:52.261Z,10.60
2017-10-18T04:00:19.986Z,11.50
2017-10-18T04:05:58.280Z,11.17
2017-10-18T04:08:32.900Z,10.77
2017-10-18T04:11:13.815Z,11.63
2017-10-18T04:13:40.591Z,10.80
2017-10-18T04:16:15.170Z,11.53
2017-10-18T04:18:50.464Z,11.57
2017-10-18T04:21:28.706Z,11.43
2017-10-18T04:24:05.989Z,12.40
2017-10-18T04:26:43.180Z,12.03
2017-10-18T04:29:17.695Z,12.17
2017-10-18T04:31:53.144Z,12.87
2017-10-18T04:34:28.131Z,12.10
2017-10-18T04:37:02.680Z,11.83
2017-10-18T04:39:37.527Z,12.30
2017-10-18T04:42:04.378Z,12.23
2017-10-18T04:44:47.953Z,11.60
2017-10-18T04:47:22.473Z,11.83
2017-10-18T04:49:57.381Z,11.93
2017-10-18T04:52:31.927Z,12.90
2017-10-18T04:55:06.953Z,12.30
2017-10-18T04:57:43.825Z,11.23
2017-10-18T05:00:18.951Z,11.63
2017-10-18T05:02:56.008Z,11.93
2017-10-18T05:05:30.841Z,12.60
2017-10-18T05:08:05.892Z,12.47
2017-10-18T05:10:40.983Z,11.80
2017-10-18T05:13:15.804Z,11.53
2017-10-18T05:15:50.606Z,12.40
2017-10-18T05:18:29.898Z,12.80
2017-10-18T05:21:05.347Z,12.73
2017-10-18T05:23:41.373Z,12.10
2017-10-18T05:26:15.997Z,12.70
2017-10-18T05:28:52.402Z,10.97
2017-10-18T05:31:26.966Z,12.57
2017-10-18T05:34:02.081Z,12.50
2017-10-18T05:36:37.253Z,12.33
2017-10-18T05:39:12.229Z,13.30
2017-10-18T05:41:47.411Z,11.90
2017-10-18T05:44:23.766Z,10.80
2017-10-18T05:46:58.699Z,13.07
2017-10-18T05:49:34.455Z,12.23
2017-10-18T05:52:09.304Z,11.57
2017-10-18T05:54:44.862Z,13.80
2017-10-18T05:57:19.276Z,12.27
2017-10-18T05:59:54.889Z,12.20
2017-10-18T06:02:30.970Z,12.60
2017-10-18T06:04:57.810Z,12.47
2017-10-18T06:07:32.877Z,13.03
2017-10-18T06:10:10.731Z,12.03
2017-10-18T06:12:46.089Z,12.00
2017-10-18T06:15:20.665Z,11.40
2017-10-18T06:17:55.244Z,11.30
2017-10-18T06:20:31.034Z,11.80
2017-10-18T06:23:06.289Z,12.57
2017-10-18T06:25:43.720Z,12.33
2017-10-18T06:31:28.948Z,13.80
2017-10-18T06:34:03.557Z,18.67
2017-10-18T06:39:24.241Z,18.73
2017-10-18T06:41:59.268Z,19.83
2017-10-18T06:44:34.632Z,17.07
2017-10-18T06:47:10.401Z,20.90
2017-10-18T06:49:45.625Z,21.87
2017-10-18T06:52:21.051Z,28.47
2017-10-18T06:54:56.400Z,29.50
2017-10-18T06:57:31.917Z,35.43
2017-10-18T07:00:06.399Z,34.03
2017-10-18T07:02:42.917Z,34.60
2017-10-18T07:05:17.362Z,35.60
2017-10-18T07:07:51.915Z,33.40
2017-10-18T07:10:27.401Z,33.93
2017-10-18T07:13:01.901Z,30.70
2017-10-18T07:15:37.464Z,33.77
2017-10-18T07:18:13.971Z,34.60
2017-10-18T07:20:49.449Z,33.83
2017-10-18T07:23:24.955Z,37.00
2017-10-18T07:26:00.404Z,34.70
2017-10-18T07:28:35.945Z,34.30
2017-10-18T07:31:11.292Z,33.80
2017-10-18T07:33:45.780Z,34.80
2017-10-18T07:36:21.182Z,32.40
2017-10-18T07:38:56.671Z,34.60
2017-10-18T07:41:32.042Z,34.03
2017-10-18T07:44:10.143Z,33.07
2017-10-18T07:46:45.053Z,32.50
2017-10-18T07:49:20.249Z,34.47
2017-10-18T07:51:55.249Z,29.40
2017-10-18T07:54:31.625Z,28.27
2017-10-18T07:57:06.398Z,27.00
2017-10-18T07:59:43.899Z,28.03
2017-10-18T08:02:19.441Z,32.30
2017-10-18T08:04:46.255Z,28.90
2017-10-18T08:07:21.334Z,27.53
2017-10-18T08:10:02.136Z,21.30
2017-10-18T08:12:37.487Z,16.50
2017-10-18T08:15:12.105Z,13.10
2017-10-18T08:17:47.602Z,12.33
2017-10-18T08:20:25.242Z,13.20
2017-10-18T08:23:00.640Z,13.43
2017-10-18T08:25:40.956Z,12.33
2017-10-18T08:28:15.626Z,11.90
2017-10-18T08:30:50.319Z,12.80
2017-10-18T08:33:25.824Z,13.33
2017-10-18T08:36:01.367Z,19.97
2017-10-18T08:38:36.699Z,18.07
2017-10-18T08:41:11.413Z,17.00
2017-10-18T08:43:46.238Z,12.80
2017-10-18T08:46:22.060Z,12.40
2017-10-18T08:48:56.729Z,12.57
2017-10-18T08:51:33.344Z,13.67
2017-10-18T08:54:08.014Z,10.47
2017-10-18T08:56:46.127Z,13.07
2017-10-18T08:59:21.098Z,16.13
2017-10-18T09:01:55.988Z,13.63
2017-10-18T09:04:30.491Z,13.43
2017-10-18T09:07:05.275Z,12.27
2017-10-18T09:09:39.914Z,14.17
2017-10-18T09:12:15.317Z,14.80
2017-10-18T09:14:51.929Z,12.43
2017-10-18T09:17:30.018Z,21.80
2017-10-18T09:20:04.910Z,21.67
2017-10-18T09:22:39.329Z,22.00
2017-10-18T09:25:13.952Z,19.50
2017-10-18T09:27:49.381Z,25.93
2017-10-18T09:30:24.757Z,20.13
2017-10-18T09:33:00.143Z,19.20
2017-10-18T09:35:34.714Z,20.80
2017-10-18T09:38:09.691Z,16.10
2017-10-18T09:40:44.955Z,14.83
2017-10-18T09:43:19.601Z,11.30
2017-10-18T09:45:56.967Z,11.07
2017-10-18T09:48:32.830Z,12.30
2017-10-18T09:51:07.854Z,10.17
2017-10-18T09:53:44.962Z,8.20
2017-10-18T09:56:20.099Z,10.90
2017-10-18T09:58:56.389Z,8.77
2017-10-18T10:01:31.759Z,8.37
2017-10-18T10:07:03.364Z,7.67
2017-10-18T10:09:37.963Z,7.33
2017-10-18T10:12:13.485Z,7.70
2017-10-18T10:14:48.827Z,7.00
2017-10-18T10:17:23.459Z,6.27
2017-10-18T10:19:58.984Z,5.90
2017-10-18T10:22:35.332Z,5.90
2017-10-18T10:25:10.012Z,6.80
2017-10-18T10:27:47.530Z,6.20
2017-10-18T10:30:23.027Z,6.53
2017-10-18T10:32:58.959Z,5.00
2017-10-18T10:35:34.162Z,4.73
2017-10-18T10:38:10.223Z,4.87
2017-10-18T10:40:45.095Z,4.73
2017-10-18T10:43:21.238Z,4.83
2017-10-18T10:45:55.806Z,4.77
2017-10-18T10:48:30.478Z,4.80
2017-10-18T10:51:05.696Z,5.93
2017-10-18T10:53:40.236Z,5.67
2017-10-18T10:56:14.801Z,6.20
2017-10-18T10:58:49.456Z,6.77
2017-10-18T11:01:24.865Z,6.27
2017-10-18T11:04:00.507Z,6.50
2017-10-18T11:06:35.162Z,7.37
2017-10-18T11:09:09.656Z,6.23
2017-10-18T11:11:45.072Z,6.53
2017-10-18T11:14:20.552Z,7.77
2017-10-18T11:16:54.988Z,7.40
2017-10-18T11:19:36.641Z,7.23
2017-10-18T11:22:11.221Z,7.80
2017-10-18T11:24:46.524Z,7.37
2017-10-18T11:27:21.255Z,9.47
2017-10-18T11:29:55.845Z,8.70
2017-10-18T11:32:31.270Z,9.00
2017-10-18T11:35:05.986Z,8.70
2017-10-18T11:37:40.780Z,9.40
2017-10-18T11:40:16.410Z,9.00
2017-10-18T11:42:52.488Z,8.80
2017-10-18T11:45:29.739Z,9.53
2017-10-18T11:48:04.630Z,9.00
2017-10-18T11:50:40.252Z,9.30
2017-10-18T11:53:14.853Z,7.90
2017-10-18T11:55:49.371Z,7.70
2017-10-18T11:58:24.752Z,8.13
2017-10-18T12:00:59.427Z,8.70
2017-10-18T12:03:26.228Z,7.67
2017-10-18T12:06:01.462Z,8.27
2017-10-18T12:08:36.748Z,7.57
2017-10-18T12:11:13.438Z,7.57
2017-10-18T12:13:48.538Z,8.50
2017-10-18T12:16:25.758Z,7.77
2017-10-18T12:19:00.592Z,6.20
2017-10-18T12:21:37.156Z,7.73
2017-10-18T12:24:11.637Z,9.00
2017-10-18T12:26:48.712Z,8.00
2017-10-18T12:29:24.044Z,7.13
2017-10-18T12:32:01.752Z,7.37
2017-10-18T12:34:37.068Z,7.97
2017-10-18T12:37:14.242Z,8.30
2017-10-18T12:39:49.347Z,7.20
2017-10-18T12:42:23.964Z,8.20
2017-10-18T12:44:58.711Z,7.87
2017-10-18T12:47:33.242Z,8.60
2017-10-18T12:50:08.647Z,11.03
2017-10-18T12:52:44.727Z,9.10
2017-10-18T12:55:21.777Z,11.83
2017-10-18T12:57:58.371Z,7.43
2017-10-18T13:00:35.485Z,5.73
2017-10-18T13:03:10.045Z,6.63
2017-10-18T13:05:45.405Z,6.27
2017-10-18T13:08:20.870Z,7.03
2017-10-18T13:10:56.285Z,6.67
2017-10-18T13:13:32.730Z,6.43
2017-10-18T13:16:07.242Z,5.13
2017-10-18T13:18:42.174Z,5.40
2017-10-18T13:21:17.483Z,6.10
2017-10-18T13:23:52.454Z,4.87
2017-10-18T13:26:26.934Z,4.50
2017-10-18T13:29:01.499Z,4.67
2017-10-18T13:31:36.125Z,4.47
2017-10-18T13:34:11.570Z,4.50
2017-10-18T13:36:46.239Z,3.93
2017-10-18T13:39:22.757Z,3.53
2017-10-18T13:41:58.388Z,4.07
2017-10-18T13:44:35.681Z,4.53
2017-10-18T13:47:11.657Z,5.20
2017-10-18T13:49:48.306Z,8.80
2017-10-18T13:52:23.659Z,7.20
2017-10-18T13:54:58.322Z,6.37
2017-10-18T13:57:32.862Z,10.93
2017-10-18T14:00:08.299Z,8.90
2017-10-18T14:02:48.041Z,10.73
2017-10-18T14:05:14.867Z,12.43
2017-10-18T14:07:50.041Z,13.10
2017-10-18T14:10:25.745Z,11.70
2017-10-18T14:13:00.665Z,14.90
2017-10-18T14:15:35.218Z,13.97
2017-10-18T14:18:09.676Z,11.20
2017-10-18T14:20:44.357Z,12.57
2017-10-18T14:23:19.867Z,13.50
2017-10-18T14:25:54.405Z,13.37
2017-10-18T14:28:29.044Z,12.23
2017-10-18T14:31:08.104Z,12.00
2017-10-18T14:33:43.112Z,12.00
2017-10-18T14:36:19.268Z,12.10
2017-10-18T14:38:53.885Z,19.53
2017-10-18T14:41:28.409Z,17.97
2017-10-18T14:44:03.773Z,17.50
2017-10-18T14:46:41.044Z,13.50
2017-10-18T14:49:16.303Z,14.30
2017-10-18T14:51:53.362Z,16.47
2017-10-18T14:54:30.292Z,18.10
2017-10-18T14:57:08.675Z,18.80
2017-10-18T14:59:43.266Z,18.90
2017-10-18T15:02:18.488Z,20.63
2017-10-18T15:04:53.468Z,20.13
2017-10-18T15:07:28.754Z,18.93
2017-10-18T15:10:04.360Z,29.67
2017-10-18T15:12:41.702Z,37.47
2017-10-18T15:15:16.342Z,38.73
2017-10-18T15:17:51.168Z,45.57
2017-10-18T15:20:25.767Z,36.30
2017-10-18T15:23:01.231Z,28.30
2017-10-18T15:25:37.822Z,31.50
2017-10-18T15:28:15.606Z,29.50
2017-10-18T15:30:50.481Z,26.67
2017-10-18T15:33:40.308Z,24.33
2017-10-18T15:36:15.267Z,30.63
2017-10-18T15:38:51.033Z,32.40
2017-10-18T15:41:26.362Z,30.40
2017-10-18T15:44:02.927Z,28.57
2017-10-18T15:46:38.400Z,41.67
2017-10-18T15:49:14.626Z,38.43
2017-10-18T15:51:49.473Z,32.30
2017-10-18T15:54:28.410Z,29.93
2017-10-18T15:57:05.509Z,30.50
2017-10-18T15:59:41.009Z,29.50
2017-10-18T16:02:07.767Z,30.07
2017-10-18T16:04:35.470Z,30.60
2017-10-18T16:07:13.328Z,27.10
2017-10-18T16:09:48.229Z,30.90
2017-10-18T16:12:25.484Z,30.90
2017-10-18T16:15:10.094Z,37.47
2017-10-18T16:17:45.583Z,32.70
2017-10-18T16:20:20.240Z,33.50
2017-10-18T16:22:54.877Z,34.10
2017-10-18T16:25:29.504Z,32.80
2017-10-18T16:28:04.348Z,36.60
2017-10-18T16:30:38.876Z,35.50
2017-10-18T16:33:13.694Z,37.63
2017-10-18T16:35:57.890Z,37.47
2017-10-18T16:38:42.093Z,37.87
2017-10-18T16:41:17.376Z,38.60
2017-10-18T16:44:00.787Z,36.97
2017-10-18T16:46:40.317Z,34.53
2017-10-18T16:49:15.900Z,35.40
2017-10-18T16:51:53.240Z,34.53
2017-10-18T16:54:28.824Z,33.33
2017-10-18T16:57:19.008Z,32.60
2017-10-18T16:59:55.897Z,30.47
2017-10-18T17:02:31.425Z,31.30
2017-10-18T17:05:07.642Z,29.97
2017-10-18T17:07:42.440Z,28.53
2017-10-18T17:10:23.430Z,25.87
2017-10-18T17:13:00.117Z,28.57
2017-10-18T17:15:35.921Z,26.03
2017-10-18T17:18:16.121Z,27.43
2017-10-18T17:20:52.941Z,28.40
2017-10-18T17:23:27.536Z,27.17
2017-10-18T17:26:03.315Z,25.53
2017-10-18T17:28:38.465Z,22.70
2017-10-18T17:31:14.949Z,22.90
2017-10-18T17:33:51.700Z,22.17
2017-10-18T17:36:28.064Z,21.10
2017-10-18T17:39:02.762Z,20.93
2017-10-18T17:41:38.322Z,20.50
2017-10-18T17:44:13.842Z,20.53
2017-10-18T17:46:51.567Z,18.43
2017-10-18T17:49:18.481Z,18.90
2017-10-18T17:51:45.411Z,19.90
2017-10-18T17:54:32.497Z,20.83
2017-10-18T17:56:59.157Z,17.90
2017-10-18T17:59:44.982Z,17.27
2017-10-18T18:02:20.326Z,18.53
2017-10-18T18:04:48.125Z,19.87
2017-10-18T18:07:28.202Z,18.60
2017-10-18T18:10:04.280Z,19.30
2017-10-18T18:12:39.820Z,20.17
2017-10-18T18:15:19.827Z,22.40
2017-10-18T18:17:54.784Z,19.20
2017-10-18T18:20:37.525Z,20.30
2017-10-18T18:23:12.082Z,19.97
2017-10-18T18:28:39.238Z,19.97
2017-10-18T18:33:58.888Z,20.40
2017-10-18T18:36:39.348Z,20.47
2017-10-18T18:39:18.455Z,21.33
2017-10-18T18:42:01.204Z,19.20
2017-10-18T18:44:51.699Z,17.17
2017-10-18T18:47:36.665Z,16.57
2017-10-18T18:50:03.568Z,16.50
2017-10-18T18:52:43.867Z,12.50
2017-10-18T18:55:21.103Z,12.27
2017-10-18T18:58:11.767Z,12.47
2017-10-18T19:00:48.941Z,10.70
2017-10-18T19:03:25.302Z,10.23
2017-10-18T19:06:00.898Z,11.70
2017-10-18T19:08:40.409Z,13.10
2017-10-18T19:11:07.251Z,12.43
2017-10-18T19:16:27.562Z,12.43
2017-10-18T19:19:15.003Z,12.57
2017-10-18T19:21:52.048Z,12.87
2017-10-18T19:27:16.288Z,16.00
2017-10-18T19:30:04.985Z,16.13
2017-10-18T19:32:39.725Z,13.87
2017-10-18T19:35:16.555Z,12.83
2017-10-18T19:37:53.374Z,12.43
2017-10-18T19:40:30.730Z,11.30
2017-10-18T19:43:06.348Z,11.07
2017-10-18T19:48:32.279Z,13.30
2017-10-18T19:54:06.514Z,10.93
2017-10-18T19:56:49.144Z,13.70
2017-10-18T19:59:15.949Z,11.77
2017-10-18T20:01:42.902Z,12.83
